createdAt,value
2023-05-15T00:00:33.454Z,1202.00
2023-05-15T00:01:33.474Z,1210.00
2023-05-15T00:02:33.527Z,1218.00
2023-05-15T00:03:33.619Z,1198.00
2023-05-15T00:04:33.552Z,1194.00
2023-05-15T00:05:33.513Z,1203.00
2023-05-15T00:06:33.557Z,1202.00
2023-05-15T00:07:33.528Z,1196.00
2023-05-15T00:08:33.560Z,1196.00
2023-05-15T00:09:33.614Z,1213.00
2023-05-15T00:10:33.588Z,1212.00
2023-05-15T00:11:33.606Z,1191.00
2023-05-15T00:12:33.661Z,1207.00
2023-05-15T00:13:33.660Z,1205.00
2023-05-15T00:14:33.667Z,1210.00
2023-05-15T00:15:33.697Z,1205.00
2023-05-15T00:16:33.850Z,1207.00
2023-05-15T00:17:33.756Z,1208.00
2023-05-15T00:18:33.766Z,1204.00
2023-05-15T00:19:33.734Z,1206.00
2023-05-15T00:20:33.792Z,1195.00
2023-05-15T00:21:33.825Z,1219.00
2023-05-15T00:22:33.829Z,1213.00
2023-05-15T00:23:33.862Z,1201.00
2023-05-15T00:24:33.855Z,1217.00
2023-05-15T00:25:33.889Z,1188.00
2023-05-15T00:26:33.900Z,1205.00
2023-05-15T00:27:33.913Z,1212.00
2023-05-15T00:28:33.996Z,1201.00
2023-05-15T00:29:33.970Z,1191.00
2023-05-15T00:30:33.964Z,1183.00
2023-05-15T00:31:34.061Z,1209.00
2023-05-15T00:32:34.077Z,1214.00
2023-05-15T00:33:34.040Z,1221.00
2023-05-15T00:34:34.113Z,1198.00
2023-05-15T00:35:34.134Z,1206.00
2023-05-15T00:36:34.166Z,1207.00
2023-05-15T00:37:34.170Z,1191.00
2023-05-15T00:38:34.178Z,1213.00
2023-05-15T00:39:34.219Z,1208.00
2023-05-15T00:40:34.227Z,1199.00
2023-05-15T00:41:34.240Z,1211.00
2023-05-15T00:42:34.288Z,1198.00
2023-05-15T00:43:34.318Z,1215.00
2023-05-15T00:44:34.327Z,1215.00
2023-05-15T00:45:34.370Z,1191.00
2023-05-15T00:46:34.397Z,1203.00
2023-05-15T00:47:34.444Z,1212.00
2023-05-15T00:48:34.420Z,1208.00
2023-05-15T00:49:34.443Z,1209.00
2023-05-15T00:50:34.465Z,1215.00
2023-05-15T00:51:34.540Z,1218.00
2023-05-15T00:52:34.527Z,1205.00
2023-05-15T00:53:34.585Z,1200.00
2023-05-15T00:54:34.560Z,1190.00
2023-05-15T00:55:34.606Z,1197.00
2023-05-15T00:56:34.610Z,1220.00
2023-05-15T00:57:34.646Z,1200.00
2023-05-15T00:58:34.656Z,1221.00
2023-05-15T00:59:34.715Z,1204.00
2023-05-15T01:00:34.753Z,1208.00
2023-05-15T01:01:34.875Z,1200.00
2023-05-15T01:02:34.833Z,1218.00
2023-05-15T01:03:34.788Z,1212.00
2023-05-15T01:04:34.828Z,1225.00
2023-05-15T01:05:34.861Z,1220.00
2023-05-15T01:06:34.887Z,1216.00
2023-05-15T01:07:34.980Z,1214.00
2023-05-15T01:08:34.901Z,1203.00
2023-05-15T01:09:34.929Z,1212.00
2023-05-15T01:10:34.945Z,1213.00
2023-05-15T01:11:35.107Z,1219.00
2023-05-15T01:12:34.972Z,1214.00
2023-05-15T01:13:35.032Z,1209.00
2023-05-15T01:14:35.063Z,1200.00
2023-05-15T01:15:35.075Z,1215.00
2023-05-15T01:16:35.124Z,1216.00
2023-05-15T01:17:35.136Z,1201.00
2023-05-15T01:18:35.253Z,1203.00
2023-05-15T01:19:35.288Z,1219.00
2023-05-15T01:20:35.235Z,1220.00
2023-05-15T01:21:35.256Z,1217.00
2023-05-15T01:22:35.255Z,1223.00
2023-05-15T01:23:35.332Z,1212.00
2023-05-15T01:24:35.305Z,1201.00
2023-05-15T01:25:35.379Z,1214.00
2023-05-15T01:26:35.424Z,1212.00
2023-05-15T01:27:35.412Z,1217.00
2023-05-15T01:28:35.409Z,1222.00
2023-05-15T01:29:35.448Z,1213.00
2023-05-15T01:30:35.456Z,1201.00
2023-05-15T01:31:35.528Z,1213.00
2023-05-15T01:32:35.551Z,1206.00
2023-05-15T01:33:35.577Z,1202.00
2023-05-15T01:34:35.611Z,1215.00
2023-05-15T01:35:35.659Z,1228.00
2023-05-15T01:36:35.669Z,1207.00
2023-05-15T01:37:35.663Z,1208.00
2023-05-15T01:38:35.760Z,1203.00
2023-05-15T01:39:35.777Z,1220.00
2023-05-15T01:40:35.802Z,1215.00
2023-05-15T01:41:35.794Z,1212.00
2023-05-15T01:42:35.843Z,1228.00
2023-05-15T01:43:35.924Z,1210.00
2023-05-15T01:44:35.918Z,1210.00
2023-05-15T01:45:35.920Z,1208.00
2023-05-15T01:46:35.984Z,1212.00
2023-05-15T01:47:36.023Z,1202.00
2023-05-15T01:48:36.054Z,1202.00
2023-05-15T01:49:36.053Z,1201.00
2023-05-15T01:50:36.087Z,1208.00
2023-05-15T01:51:36.101Z,1198.00
2023-05-15T01:52:36.136Z,1215.00
2023-05-15T01:53:36.189Z,1217.00
2023-05-15T01:54:36.192Z,1213.00
2023-05-15T01:55:36.256Z,1222.00
2023-05-15T01:56:36.281Z,1223.00
2023-05-15T01:57:36.320Z,1211.00
2023-05-15T01:58:36.349Z,1212.00
2023-05-15T01:59:36.395Z,1214.00
2023-05-15T02:00:36.446Z,1207.00
2023-05-15T02:01:36.487Z,1213.00
2023-05-15T02:02:36.540Z,1205.00
2023-05-15T02:03:37.271Z,1220.00
2023-05-15T02:04:36.577Z,1208.00
2023-05-15T02:05:36.619Z,1212.00
2023-05-15T02:06:36.588Z,1212.00
2023-05-15T02:07:36.622Z,1215.00
2023-05-15T02:08:36.657Z,1213.00
2023-05-15T02:09:36.709Z,1225.00
2023-05-15T02:10:36.782Z,1205.00
2023-05-15T02:11:36.807Z,1223.00
2023-05-15T02:12:36.824Z,1201.00
2023-05-15T02:13:36.844Z,1214.00
2023-05-15T02:14:36.887Z,1225.00
2023-05-15T02:15:36.937Z,1206.00
2023-05-15T02:16:37.005Z,1205.00
2023-05-15T02:17:37.038Z,1216.00
2023-05-15T02:18:37.093Z,1208.00
2023-05-15T02:19:37.092Z,1211.00
2023-05-15T02:20:37.091Z,1216.00
2023-05-15T02:21:37.101Z,1223.00
2023-05-15T02:22:37.170Z,1223.00
2023-05-15T02:23:37.191Z,1210.00
2023-05-15T02:24:37.218Z,1217.00
2023-05-15T02:25:37.240Z,1206.00
2023-05-15T02:26:37.282Z,1219.00
2023-05-15T02:27:37.326Z,1219.00
2023-05-15T02:28:37.318Z,1203.00
2023-05-15T02:29:37.394Z,1219.00
2023-05-15T02:30:37.379Z,1218.00
2023-05-15T02:31:37.523Z,1217.00
2023-05-15T02:32:37.537Z,1207.00
2023-05-15T02:33:37.504Z,1231.00
2023-05-15T02:34:37.552Z,1208.00
2023-05-15T02:35:37.583Z,1210.00
2023-05-15T02:36:37.598Z,1200.00
2023-05-15T02:37:37.672Z,1211.00
2023-05-15T02:38:37.662Z,1221.00
2023-05-15T02:39:37.713Z,1199.00
2023-05-15T02:40:37.765Z,1209.00
2023-05-15T02:41:37.778Z,1213.00
2023-05-15T02:42:37.811Z,1205.00
2023-05-15T02:43:37.845Z,1214.00
2023-05-15T02:44:37.894Z,1203.00
2023-05-15T02:45:37.983Z,1209.00
2023-05-15T02:46:37.964Z,1201.00
2023-05-15T02:47:38.029Z,1213.00
2023-05-15T02:48:38.034Z,1215.00
2023-05-15T02:49:38.063Z,1201.00
2023-05-15T02:50:38.077Z,1214.00
2023-05-15T02:51:38.131Z,1197.00
2023-05-15T02:52:38.179Z,1185.00
2023-05-15T02:53:38.179Z,1214.00
2023-05-15T02:54:38.251Z,1208.00
2023-05-15T02:55:38.309Z,1217.00
2023-05-15T02:56:38.336Z,1217.00
2023-05-15T02:57:38.336Z,1201.00
2023-05-15T02:58:38.404Z,1207.00
2023-05-15T02:59:38.433Z,1204.00
2023-05-15T03:00:38.488Z,1209.00
2023-05-15T03:01:38.548Z,1219.00
2023-05-15T03:02:38.631Z,1207.00
2023-05-15T03:03:38.616Z,1214.00
2023-05-15T03:04:38.799Z,1204.00
2023-05-15T03:05:38.706Z,1197.00
2023-05-15T03:06:38.679Z,1208.00
2023-05-15T03:07:38.775Z,1204.00
2023-05-15T03:08:38.822Z,1199.00
2023-05-15T03:09:38.861Z,1198.00
2023-05-15T03:10:38.866Z,1198.00
2023-05-15T03:11:38.918Z,1215.00
2023-05-15T03:12:38.986Z,1208.00
2023-05-15T03:13:39.003Z,1196.00
2023-05-15T03:14:39.072Z,1195.00
2023-05-15T03:15:39.107Z,1209.00
2023-05-15T03:16:39.259Z,1206.00
2023-05-15T03:17:39.219Z,1199.00
2023-05-15T03:18:39.252Z,1220.00
2023-05-15T03:19:39.310Z,1208.00
2023-05-15T03:20:39.318Z,1204.00
2023-05-15T03:21:39.357Z,1204.00
2023-05-15T03:22:39.415Z,1203.00
2023-05-15T03:23:39.444Z,1202.00
2023-05-15T03:24:39.480Z,1201.00
2023-05-15T03:25:39.505Z,1207.00
2023-05-15T03:26:39.583Z,1197.00
2023-05-15T03:27:39.559Z,1217.00
2023-05-15T03:28:41.740Z,1209.00
2023-05-15T03:29:39.620Z,1215.00
2023-05-15T03:30:39.627Z,1197.00
2023-05-15T03:31:39.625Z,1193.00
2023-05-15T03:32:39.601Z,1212.00
2023-05-15T03:33:39.598Z,1214.00
2023-05-15T03:34:41.024Z,1206.00
2023-05-15T03:35:39.598Z,1231.00
2023-05-15T03:36:39.568Z,1229.00
2023-05-15T03:37:39.555Z,1220.00
2023-05-15T03:38:39.536Z,1219.00
2023-05-15T03:39:39.542Z,1207.00
2023-05-15T03:40:39.578Z,1207.00
2023-05-15T03:41:39.561Z,1202.00
2023-05-15T03:42:39.543Z,1208.00
2023-05-15T03:43:39.549Z,1212.00
2023-05-15T03:44:39.498Z,1206.00
2023-05-15T03:45:39.503Z,1224.00
2023-05-15T03:46:39.550Z,1197.00
2023-05-15T03:47:39.507Z,1216.00
2023-05-15T03:48:39.467Z,1222.00
2023-05-15T03:49:39.490Z,1211.00
2023-05-15T03:50:39.436Z,1218.00
2023-05-15T03:51:39.458Z,1196.00
2023-05-15T03:52:40.833Z,1198.00
2023-05-15T03:53:39.454Z,1198.00
2023-05-15T03:54:39.438Z,1210.00
2023-05-15T03:55:39.426Z,1201.00
2023-05-15T03:56:39.428Z,1187.00
2023-05-15T03:57:39.399Z,1204.00
2023-05-15T03:58:39.414Z,1203.00
2023-05-15T03:59:39.398Z,1208.00
2023-05-15T04:00:39.399Z,1209.00
2023-05-15T04:01:51.271Z,1201.00
2023-05-15T04:02:40.489Z,1203.00
2023-05-15T04:03:39.404Z,1205.00
2023-05-15T04:04:39.369Z,1208.00
2023-05-15T04:05:39.396Z,1201.00
2023-05-15T04:06:39.361Z,1177.00
2023-05-15T04:07:39.378Z,1144.00
2023-05-15T04:08:40.412Z,1145.00
2023-05-15T04:09:39.334Z,1111.00
2023-05-15T04:10:39.370Z,1082.00
2023-05-15T04:11:39.366Z,1083.00
2023-05-15T04:12:39.349Z,1045.00
2023-05-15T04:13:39.322Z,986.00
2023-05-15T04:14:39.375Z,959.00
2023-05-15T04:15:39.440Z,915.00
2023-05-15T04:16:39.592Z,881.00
2023-05-15T04:17:39.581Z,818.00
2023-05-15T04:18:39.640Z,806.00
2023-05-15T04:19:41.069Z,779.00
2023-05-15T04:20:39.758Z,733.00
2023-05-15T04:21:39.782Z,703.00
2023-05-15T04:22:39.914Z,676.00
2023-05-15T04:23:39.884Z,654.00
2023-05-15T04:24:39.924Z,644.00
2023-05-15T04:25:39.990Z,646.00
2023-05-15T04:26:40.106Z,637.00
2023-05-15T04:27:40.107Z,623.00
2023-05-15T04:28:41.519Z,614.00
2023-05-15T04:29:41.199Z,614.00
2023-05-15T04:30:40.181Z,596.00
2023-05-15T04:31:40.219Z,589.00
2023-05-15T04:32:40.198Z,586.00
2023-05-15T04:33:40.120Z,582.00
2023-05-15T04:34:40.122Z,570.00
2023-05-15T04:35:40.126Z,568.00
2023-05-15T04:36:40.813Z,569.00
2023-05-15T04:37:40.314Z,572.00
2023-05-15T04:38:40.382Z,575.00
2023-05-15T04:39:40.451Z,575.00
2023-05-15T04:40:40.549Z,576.00
2023-05-15T04:41:40.624Z,582.00
2023-05-15T04:42:40.631Z,572.00
2023-05-15T04:43:41.400Z,581.00
2023-05-15T04:44:40.737Z,582.00
2023-05-15T04:45:40.802Z,584.00
2023-05-15T04:46:40.941Z,578.00
2023-05-15T04:47:41.009Z,580.00
2023-05-15T04:48:41.011Z,586.00
2023-05-15T04:49:41.053Z,588.00
2023-05-15T04:50:41.120Z,596.00
2023-05-15T04:51:41.162Z,593.00
2023-05-15T04:52:41.220Z,607.00
2023-05-15T04:53:41.294Z,599.00
2023-05-15T04:54:41.338Z,604.00
2023-05-15T04:55:41.384Z,605.00
2023-05-15T04:56:41.469Z,604.00
2023-05-15T04:57:41.495Z,608.00
2023-05-15T04:58:41.588Z,605.00
2023-05-15T04:59:41.616Z,611.00
2023-05-15T05:00:41.674Z,616.00
2023-05-15T05:01:41.761Z,616.00
2023-05-15T05:02:41.891Z,607.00
2023-05-15T05:03:41.894Z,616.00
2023-05-15T05:04:41.926Z,611.00
2023-05-15T05:05:41.992Z,617.00
2023-05-15T05:06:42.045Z,623.00
2023-05-15T05:07:42.099Z,615.00
2023-05-15T05:08:42.131Z,622.00
2023-05-15T05:09:42.193Z,612.00
2023-05-15T05:10:42.287Z,616.00
2023-05-15T05:11:42.304Z,611.00
2023-05-15T05:12:42.351Z,609.00
2023-05-15T05:13:42.430Z,622.00
2023-05-15T05:14:42.646Z,620.00
2023-05-15T05:15:42.557Z,612.00
2023-05-15T05:16:42.560Z,618.00
2023-05-15T05:17:42.731Z,617.00
2023-05-15T05:18:42.693Z,616.00
2023-05-15T05:19:42.869Z,622.00
2023-05-15T05:20:42.811Z,616.00
2023-05-15T05:21:42.871Z,616.00
2023-05-15T05:22:42.938Z,622.00
2023-05-15T05:23:43.005Z,624.00
2023-05-15T05:24:43.030Z,621.00
2023-05-15T05:25:43.129Z,621.00
2023-05-15T05:26:43.132Z,617.00
2023-05-15T05:27:43.166Z,611.00
2023-05-15T05:28:43.184Z,615.00
2023-05-15T05:29:43.364Z,612.00
2023-05-15T05:30:43.811Z,607.00
2023-05-15T05:31:43.424Z,603.00
2023-05-15T05:32:43.481Z,601.00
2023-05-15T05:33:43.464Z,606.00
2023-05-15T05:34:43.592Z,595.00
2023-05-15T05:35:43.812Z,602.00
2023-05-15T05:36:43.609Z,598.00
2023-05-15T05:37:43.678Z,579.00
2023-05-15T05:38:43.728Z,558.00
2023-05-15T05:39:43.832Z,566.00
2023-05-15T05:40:43.824Z,564.00
2023-05-15T05:41:43.931Z,559.00
2023-05-15T05:42:43.885Z,553.00
2023-05-15T05:43:44.316Z,551.00
2023-05-15T05:44:43.865Z,540.00
2023-05-15T05:45:43.971Z,532.00
2023-05-15T05:46:43.953Z,555.00
2023-05-15T05:47:43.933Z,559.00
2023-05-15T05:48:43.918Z,565.00
2023-05-15T05:49:43.926Z,566.00
2023-05-15T05:50:43.914Z,601.00
2023-05-15T05:51:44.001Z,620.00
2023-05-15T05:52:44.017Z,631.00
2023-05-15T05:53:44.079Z,641.00
2023-05-15T05:54:44.136Z,648.00
2023-05-15T05:55:44.217Z,660.00
2023-05-15T05:56:44.369Z,666.00
2023-05-15T05:57:44.307Z,653.00
2023-05-15T05:58:44.364Z,672.00
2023-05-15T05:59:44.434Z,690.00
2023-05-15T06:00:44.495Z,724.00
2023-05-15T06:01:44.868Z,723.00
2023-05-15T06:02:44.617Z,740.00
2023-05-15T06:03:44.695Z,737.00
2023-05-15T06:04:44.652Z,752.00
2023-05-15T06:05:44.650Z,750.00
2023-05-15T06:06:45.357Z,760.00
2023-05-15T06:07:44.705Z,759.00
2023-05-15T06:08:44.771Z,764.00
2023-05-15T06:09:44.780Z,757.00
2023-05-15T06:10:44.873Z,783.00
2023-05-15T06:11:44.891Z,809.00
2023-05-15T06:12:44.895Z,820.00
2023-05-15T06:13:44.923Z,798.00
2023-05-15T06:14:45.004Z,774.00
2023-05-15T06:15:45.053Z,803.00
2023-05-15T06:16:45.343Z,796.00
2023-05-15T06:17:45.126Z,832.00
2023-05-15T06:18:45.057Z,823.00
2023-05-15T06:19:45.109Z,811.00
2023-05-15T06:20:45.131Z,826.00
2023-05-15T06:21:45.343Z,823.00
2023-05-15T06:22:45.335Z,800.00
2023-05-15T06:23:45.239Z,810.00
2023-05-15T06:24:45.247Z,840.00
2023-05-15T06:25:45.323Z,840.00
2023-05-15T06:26:45.270Z,815.00
2023-05-15T06:27:45.355Z,854.00
2023-05-15T06:28:45.282Z,834.00
2023-05-15T06:29:45.338Z,794.00
2023-05-15T06:30:45.339Z,808.00
2023-05-15T06:31:45.367Z,811.00
2023-05-15T06:32:45.866Z,752.00
2023-05-15T06:33:45.358Z,777.00
2023-05-15T06:34:45.344Z,699.00
2023-05-15T06:35:45.396Z,666.00
2023-05-15T06:36:45.379Z,675.00
2023-05-15T06:37:45.875Z,672.00
2023-05-15T06:38:45.847Z,696.00
2023-05-15T06:39:45.441Z,667.00
2023-05-15T06:40:45.417Z,692.00
2023-05-15T06:41:45.450Z,678.00
2023-05-15T06:42:45.525Z,675.00
2023-05-15T06:43:45.840Z,659.00
2023-05-15T06:44:45.504Z,662.00
2023-05-15T06:45:45.526Z,681.00
2023-05-15T06:46:45.517Z,681.00
2023-05-15T06:47:45.703Z,709.00
2023-05-15T06:48:45.822Z,723.00
2023-05-15T06:49:45.537Z,718.00
2023-05-15T06:50:45.540Z,740.00
2023-05-15T06:51:45.533Z,733.00
2023-05-15T06:52:45.573Z,728.00
2023-05-15T06:53:45.542Z,709.00
2023-05-15T06:54:45.545Z,705.00
2023-05-15T06:55:45.526Z,688.00
2023-05-15T06:56:45.516Z,693.00
2023-05-15T06:57:45.517Z,703.00
2023-05-15T06:58:45.912Z,705.00
2023-05-15T06:59:45.581Z,667.00
2023-05-15T07:00:45.608Z,668.00
2023-05-15T07:01:45.915Z,677.00
2023-05-15T07:02:45.890Z,710.00
2023-05-15T07:03:45.912Z,664.00
2023-05-15T07:04:45.819Z,692.00
2023-05-15T07:05:45.865Z,700.00
2023-05-15T07:06:45.850Z,720.00
2023-05-15T07:07:46.704Z,705.00
2023-05-15T07:08:45.959Z,720.00
2023-05-15T07:09:45.996Z,703.00
2023-05-15T07:10:46.032Z,675.00
2023-05-15T07:11:46.168Z,665.00
2023-05-15T07:12:46.189Z,694.00
2023-05-15T07:13:47.532Z,693.00
2023-05-15T07:14:46.258Z,713.00
2023-05-15T07:15:46.358Z,690.00
2023-05-15T07:16:46.383Z,704.00
2023-05-15T07:17:46.434Z,682.00
2023-05-15T07:18:46.948Z,655.00
2023-05-15T07:19:46.548Z,661.00
2023-05-15T07:20:46.609Z,664.00
2023-05-15T07:21:46.853Z,663.00
2023-05-15T07:22:55.652Z,663.00
2023-05-15T07:23:47.858Z,663.00
2023-05-15T07:24:46.728Z,665.00
2023-05-15T07:25:46.701Z,672.00
2023-05-15T07:26:58.087Z,675.00
2023-05-15T07:27:47.732Z,663.00
2023-05-15T07:28:46.843Z,663.00
2023-05-15T07:29:46.891Z,666.00
2023-05-15T07:30:46.786Z,666.00
2023-05-15T07:31:46.883Z,663.00
2023-05-15T07:32:46.713Z,643.00
2023-05-15T07:33:47.360Z,636.00
2023-05-15T07:34:46.645Z,542.00
2023-05-15T07:35:46.864Z,500.00
2023-05-15T07:36:46.661Z,505.00
2023-05-15T07:37:46.755Z,499.00
2023-05-15T07:38:46.899Z,525.00
2023-05-15T07:39:46.740Z,542.00
2023-05-15T07:40:46.773Z,546.00
2023-05-15T07:41:46.830Z,560.00
2023-05-15T07:42:46.909Z,572.00
2023-05-15T07:43:47.377Z,566.00
2023-05-15T07:44:49.354Z,579.00
2023-05-15T07:45:47.267Z,575.00
2023-05-15T07:46:47.350Z,579.00
2023-05-15T07:47:47.348Z,589.00
2023-05-15T07:48:47.357Z,592.00
2023-05-15T07:49:47.359Z,621.00
2023-05-15T07:50:47.436Z,677.00
2023-05-15T07:51:47.641Z,726.00
2023-05-15T07:52:47.513Z,698.00
2023-05-15T07:53:47.546Z,660.00
2023-05-15T07:54:47.550Z,651.00
2023-05-15T07:55:47.613Z,653.00
2023-05-15T07:56:47.594Z,644.00
2023-05-15T07:57:53.413Z,646.00
2023-05-15T07:58:48.919Z,646.00
2023-05-15T07:59:47.653Z,643.00
2023-05-15T08:00:47.589Z,626.00
2023-05-15T08:01:47.645Z,624.00
2023-05-15T08:02:47.656Z,618.00
2023-05-15T08:03:47.644Z,615.00
2023-05-15T08:04:47.615Z,628.00
2023-05-15T08:05:47.563Z,631.00
2023-05-15T08:06:47.575Z,631.00
2023-05-15T08:07:47.755Z,630.00
2023-05-15T08:08:47.539Z,637.00
2023-05-15T08:09:47.554Z,612.00
2023-05-15T08:10:47.537Z,623.00
2023-05-15T08:11:47.926Z,622.00
2023-05-15T08:12:47.531Z,634.00
2023-05-15T08:13:47.498Z,622.00
2023-05-15T08:14:47.514Z,626.00
2023-05-15T08:15:48.418Z,625.00
2023-05-15T08:16:47.542Z,627.00
2023-05-15T08:17:47.537Z,632.00
2023-05-15T08:18:47.895Z,623.00
2023-05-15T08:19:47.876Z,619.00
2023-05-15T08:20:47.495Z,610.00
2023-05-15T08:21:47.478Z,620.00
2023-05-15T08:22:47.428Z,602.00
2023-05-15T08:23:47.488Z,612.00
2023-05-15T08:24:47.425Z,581.00
2023-05-15T08:25:47.450Z,555.00
2023-05-15T08:26:47.449Z,538.00
2023-05-15T08:27:47.528Z,548.00
2023-05-15T08:28:47.480Z,549.00
2023-05-15T08:29:47.535Z,537.00
2023-05-15T08:30:47.677Z,527.00
2023-05-15T08:31:48.016Z,513.00
2023-05-15T08:32:47.710Z,523.00
2023-05-15T08:33:47.716Z,520.00
2023-05-15T08:34:47.808Z,509.00
2023-05-15T08:35:47.925Z,503.00
2023-05-15T08:36:48.486Z,502.00
2023-05-15T08:37:48.358Z,501.00
2023-05-15T08:38:48.106Z,509.00
2023-05-15T08:39:48.120Z,502.00
2023-05-15T08:40:48.164Z,501.00
2023-05-15T08:41:48.257Z,502.00
2023-05-15T08:42:48.931Z,501.00
2023-05-15T08:43:48.445Z,509.00
2023-05-15T08:44:48.235Z,508.00
2023-05-15T08:45:48.237Z,515.00
2023-05-15T08:46:48.314Z,503.00
2023-05-15T08:47:48.307Z,514.00
2023-05-15T08:48:48.299Z,516.00
2023-05-15T08:49:48.544Z,535.00
2023-05-15T08:50:48.258Z,522.00
2023-05-15T08:51:48.256Z,522.00
2023-05-15T08:52:48.247Z,522.00
2023-05-15T08:53:48.321Z,520.00
2023-05-15T08:54:48.602Z,523.00
2023-05-15T08:55:48.382Z,534.00
2023-05-15T08:56:48.436Z,530.00
2023-05-15T08:57:48.479Z,556.00
2023-05-15T08:58:48.404Z,572.00
2023-05-15T08:59:48.456Z,581.00
2023-05-15T09:00:48.510Z,604.00
2023-05-15T09:01:48.627Z,623.00
2023-05-15T09:02:48.997Z,618.00
2023-05-15T09:03:48.814Z,628.00
2023-05-15T09:04:48.731Z,637.00
2023-05-15T09:05:48.909Z,656.00
2023-05-15T09:06:48.829Z,627.00
2023-05-15T09:07:48.909Z,651.00
2023-05-15T09:08:48.965Z,675.00
2023-05-15T09:09:49.449Z,699.00
2023-05-15T09:10:49.038Z,739.00
2023-05-15T09:11:49.451Z,722.00
2023-05-15T09:12:49.415Z,691.00
2023-05-15T09:13:49.170Z,681.00
2023-05-15T09:14:49.270Z,737.00
2023-05-15T09:15:49.281Z,777.00
2023-05-15T09:16:49.363Z,794.00
2023-05-15T09:17:49.376Z,838.00
2023-05-15T09:18:49.568Z,928.00
2023-05-15T09:19:49.914Z,1108.00
2023-05-15T09:20:49.511Z,1057.00
2023-05-15T09:21:49.573Z,1015.00
2023-05-15T09:22:49.650Z,988.00
2023-05-15T09:23:49.637Z,974.00
2023-05-15T09:24:49.744Z,986.00
2023-05-15T09:25:49.772Z,978.00
2023-05-15T09:26:49.797Z,968.00
2023-05-15T09:27:49.888Z,980.00
2023-05-15T09:28:49.897Z,923.00
2023-05-15T09:29:49.909Z,812.00
2023-05-15T09:30:50.026Z,608.00
2023-05-15T09:31:50.490Z,526.00
2023-05-15T09:32:50.202Z,490.00
2023-05-15T09:33:50.011Z,495.00
2023-05-15T09:34:50.170Z,500.00
2023-05-15T09:35:50.090Z,456.00
2023-05-15T09:36:50.241Z,439.00
2023-05-15T09:37:50.179Z,454.00
2023-05-15T09:38:50.172Z,499.00
2023-05-15T09:39:50.204Z,515.00
2023-05-15T09:40:50.303Z,541.00
2023-05-15T09:41:50.304Z,550.00
2023-05-15T09:42:50.287Z,550.00
2023-05-15T09:43:50.314Z,567.00
2023-05-15T09:44:50.413Z,601.00
2023-05-15T09:45:50.573Z,619.00
2023-05-15T09:46:50.495Z,630.00
2023-05-15T09:47:50.520Z,638.00
2023-05-15T09:48:50.453Z,634.00
2023-05-15T09:49:50.480Z,638.00
2023-05-15T09:50:50.489Z,633.00
2023-05-15T09:51:50.468Z,597.00
2023-05-15T09:52:50.557Z,624.00
2023-05-15T09:53:50.590Z,629.00
2023-05-15T09:54:50.782Z,637.00
2023-05-15T09:55:50.670Z,633.00
2023-05-15T09:56:50.677Z,637.00
2023-05-15T09:57:50.733Z,642.00
2023-05-15T09:58:50.795Z,642.00
2023-05-15T09:59:50.846Z,632.00
2023-05-15T10:00:50.883Z,605.00
2023-05-15T10:01:51.052Z,603.00
2023-05-15T10:02:50.990Z,584.00
2023-05-15T10:03:51.084Z,612.00
2023-05-15T10:04:51.168Z,631.00
2023-05-15T10:05:51.204Z,642.00
2023-05-15T10:06:51.258Z,640.00
2023-05-15T10:07:51.312Z,641.00
2023-05-15T10:08:51.447Z,625.00
2023-05-15T10:09:51.420Z,593.00
2023-05-15T10:10:51.482Z,588.00
2023-05-15T10:11:51.505Z,583.00
2023-05-15T10:12:51.552Z,589.00
2023-05-15T10:13:51.614Z,563.00
2023-05-15T10:14:51.625Z,591.00
2023-05-15T10:15:51.769Z,547.00
2023-05-15T10:16:51.747Z,553.00
2023-05-15T10:17:51.787Z,543.00
2023-05-15T10:18:51.835Z,534.00
2023-05-15T10:20:51.813Z,540.00
2023-05-15T10:21:51.814Z,553.00
2023-05-15T10:22:51.766Z,546.00
2023-05-15T10:23:51.780Z,531.00
2023-05-15T10:24:51.791Z,535.00
2023-05-15T10:25:51.797Z,560.00
2023-05-15T10:26:51.800Z,568.00
2023-05-15T10:27:51.760Z,586.00
2023-05-15T10:28:51.768Z,638.00
2023-05-15T10:29:51.717Z,655.00
2023-05-15T10:30:51.747Z,712.00
2023-05-15T10:31:51.935Z,759.00
2023-05-15T10:32:51.775Z,796.00
2023-05-15T10:33:51.696Z,822.00
2023-05-15T10:34:51.732Z,838.00
2023-05-15T10:35:51.690Z,744.00
2023-05-15T10:36:51.722Z,755.00
2023-05-15T10:37:51.663Z,805.00
2023-05-15T10:38:51.674Z,840.00
2023-05-15T10:39:51.679Z,755.00
2023-05-15T10:40:51.701Z,787.00
2023-05-15T10:41:51.656Z,792.00
2023-05-15T10:42:51.623Z,778.00
2023-05-15T10:43:51.643Z,765.00
2023-05-15T10:44:51.607Z,696.00
2023-05-15T10:45:51.618Z,715.00
2023-05-15T10:46:51.663Z,702.00
2023-05-15T10:47:51.668Z,721.00
2023-05-15T10:48:51.588Z,649.00
2023-05-15T10:49:51.600Z,656.00
2023-05-15T10:50:51.584Z,673.00
2023-05-15T10:51:51.556Z,710.00
2023-05-15T10:52:51.574Z,664.00
2023-05-15T10:53:51.582Z,662.00
2023-05-15T10:54:51.576Z,677.00
2023-05-15T10:55:51.609Z,663.00
2023-05-15T10:56:52.382Z,630.00
2023-05-15T10:57:51.553Z,623.00
2023-05-15T10:58:51.529Z,648.00
2023-05-15T10:59:51.547Z,648.00
2023-05-15T11:00:51.606Z,632.00
2023-05-15T11:01:51.539Z,627.00
2023-05-15T11:02:51.652Z,613.00
2023-05-15T11:03:53.219Z,608.00
2023-05-15T11:04:51.585Z,613.00
2023-05-15T11:05:51.565Z,602.00
2023-05-15T11:06:51.523Z,605.00
2023-05-15T11:07:51.521Z,596.00
2023-05-15T11:08:51.530Z,616.00
2023-05-15T11:09:51.509Z,618.00
2023-05-15T11:10:51.517Z,629.00
2023-05-15T11:11:51.496Z,622.00
2023-05-15T11:12:51.504Z,608.00
2023-05-15T11:13:51.495Z,623.00
2023-05-15T11:14:51.459Z,619.00
2023-05-15T11:15:51.511Z,630.00
2023-05-15T11:16:51.521Z,624.00
2023-05-15T11:17:51.528Z,630.00
2023-05-15T11:18:51.521Z,654.00
2023-05-15T11:19:51.591Z,693.00
2023-05-15T11:20:51.443Z,755.00
2023-05-15T11:21:51.406Z,764.00
2023-05-15T11:22:51.423Z,829.00
2023-05-15T11:23:51.417Z,866.00
2023-05-15T11:24:51.448Z,913.00
2023-05-15T11:25:51.401Z,942.00
2023-05-15T11:26:51.378Z,961.00
2023-05-15T11:27:51.403Z,1003.00
2023-05-15T11:28:51.395Z,1004.00
2023-05-15T11:29:51.409Z,1028.00
2023-05-15T11:30:51.417Z,1054.00
2023-05-15T11:31:51.377Z,1079.00
2023-05-15T11:32:51.412Z,1048.00
2023-05-15T11:33:52.517Z,1090.00
2023-05-15T11:34:51.343Z,1094.00
2023-05-15T11:35:51.436Z,1080.00
2023-05-15T11:36:51.316Z,1131.00
2023-05-15T11:37:51.317Z,1175.00
2023-05-15T11:38:51.331Z,1207.00
2023-05-15T11:39:51.324Z,1216.00
2023-05-15T11:40:51.294Z,1227.00
2023-05-15T11:41:51.308Z,1254.00
2023-05-15T11:42:51.304Z,1257.00
2023-05-15T11:43:51.286Z,1277.00
2023-05-15T11:44:51.321Z,1295.00
2023-05-15T11:45:51.269Z,1286.00
2023-05-15T11:46:51.435Z,1285.00
2023-05-15T11:47:51.302Z,1301.00
2023-05-15T11:48:51.264Z,1281.00
2023-05-15T11:49:51.274Z,1278.00
2023-05-15T11:50:51.242Z,1333.00
2023-05-15T11:51:51.248Z,1344.00
2023-05-15T11:52:51.210Z,1361.00
2023-05-15T11:53:51.266Z,1357.00
2023-05-15T11:54:51.241Z,1370.00
2023-05-15T11:55:51.189Z,1347.00
2023-05-15T11:56:51.238Z,1333.00
2023-05-15T11:57:51.189Z,1385.00
2023-05-15T11:58:51.247Z,1398.00
2023-05-15T11:59:51.160Z,1415.00
2023-05-15T12:00:51.179Z,1310.00
2023-05-15T12:01:51.186Z,732.00
2023-05-15T12:02:51.349Z,535.00
2023-05-15T12:03:51.338Z,495.00
2023-05-15T12:04:51.262Z,495.00
2023-05-15T12:05:58.051Z,497.00
2023-05-15T12:06:52.135Z,453.00
2023-05-15T12:07:51.138Z,449.00
2023-05-15T12:08:51.178Z,452.00
2023-05-15T12:09:51.150Z,417.00
2023-05-15T12:10:51.112Z,419.00
2023-05-15T12:11:51.108Z,479.00
2023-05-15T12:12:51.128Z,488.00
2023-05-15T12:13:51.089Z,500.00
2023-05-15T12:14:51.133Z,518.00
2023-05-15T12:15:51.107Z,511.00
2023-05-15T12:16:51.255Z,508.00
2023-05-15T12:17:51.108Z,506.00
2023-05-15T12:18:51.223Z,500.00
2023-05-15T12:19:51.076Z,507.00
2023-05-15T12:20:51.135Z,505.00